sensor_id;sensor_type;location;lat;lon;timestamp;P1;durP1;ratioP1;P2;durP2;ratioP2
53931;SDS011;39844;52.496;13.482;2022-12-07T00:01:11;5.67;;;3.33;;
53931;SDS011;39844;52.496;13.482;2022-12-07T00:03:40;5.13;;;3.33;;
53931;SDS011;39844;52.496;13.482;2022-12-07T00:06:07;8.27;;;3.87;;
53931;SDS011;39844;52.496;13.482;2022-12-07T00:08:34;4.40;;;3.43;;
53931;SDS011;39844;52.496;13.482;2022-12-07T00:11:10;7.00;;;3.20;;
53931;SDS011;39844;52.496;13.482;2022-12-07T00:13:38;4.80;;;3.00;;
53931;SDS011;39844;52.496;13.482;2022-12-07T00:18:34;7.83;;;3.00;;
53931;SDS011;39844;52.496;13.482;2022-12-07T00:21:22;4.83;;;3.00;;
53931;SDS011;39844;52.496;13.482;2022-12-07T00:23:47;4.53;;;3.20;;
53931;SDS011;39844;52.496;13.482;2022-12-07T00:26:24;4.10;;;3.03;;
53931;SDS011;39844;52.496;13.482;2022-12-07T00:28:51;3.53;;;3.20;;
53931;SDS011;39844;52.496;13.482;2022-12-07T00:31:19;3.50;;;2.80;;
53931;SDS011;39844;52.496;13.482;2022-12-07T00:33:47;5.30;;;3.33;;
53931;SDS011;39844;52.496;13.482;2022-12-07T00:36:14;5.30;;;2.97;;
53931;SDS011;39844;52.496;13.482;2022-12-07T00:38:40;3.87;;;3.13;;
53931;SDS011;39844;52.496;13.482;2022-12-07T00:41:07;4.10;;;3.07;;
53931;SDS011;39844;52.496;13.482;2022-12-07T00:43:38;4.57;;;3.40;;
53931;SDS011;39844;52.496;13.482;2022-12-07T00:46:04;4.47;;;3.00;;
53931;SDS011;39844;52.496;13.482;2022-12-07T00:48:30;2.90;;;2.67;;
53931;SDS011;39844;52.496;13.482;2022-12-07T00:50:55;4.10;;;3.27;;
53931;SDS011;39844;52.496;13.482;2022-12-07T00:53:21;2.87;;;2.47;;
53931;SDS011;39844;52.496;13.482;2022-12-07T00:55:47;3.90;;;3.00;;
53931;SDS011;39844;52.496;13.482;2022-12-07T00:58:12;2.73;;;2.53;;
53931;SDS011;39844;52.496;13.482;2022-12-07T01:00:38;4.13;;;3.03;;
53931;SDS011;39844;52.496;13.482;2022-12-07T01:03:06;3.87;;;3.57;;
53931;SDS011;39844;52.496;13.482;2022-12-07T01:05:32;4.90;;;3.20;;
53931;SDS011;39844;52.496;13.482;2022-12-07T01:07:58;3.73;;;3.03;;
53931;SDS011;39844;52.496;13.482;2022-12-07T01:10:23;4.20;;;3.37;;
53931;SDS011;39844;52.496;13.482;2022-12-07T01:12:48;4.50;;;3.27;;
53931;SDS011;39844;52.496;13.482;2022-12-07T01:15:14;2.67;;;2.47;;
53931;SDS011;39844;52.496;13.482;2022-12-07T01:17:39;3.73;;;3.17;;
53931;SDS011;39844;52.496;13.482;2022-12-07T01:20:05;3.13;;;2.70;;
53931;SDS011;39844;52.496;13.482;2022-12-07T01:22:31;3.27;;;2.97;;
53931;SDS011;39844;52.496;13.482;2022-12-07T01:25:01;2.87;;;2.50;;
53931;SDS011;39844;52.496;13.482;2022-12-07T01:27:26;4.63;;;2.93;;
53931;SDS011;39844;52.496;13.482;2022-12-07T01:29:51;2.80;;;2.60;;
53931;SDS011;39844;52.496;13.482;2022-12-07T01:32:17;2.90;;;2.60;;
53931;SDS011;39844;52.496;13.482;2022-12-07T01:34:42;2.70;;;2.50;;
53931;SDS011;39844;52.496;13.482;2022-12-07T01:37:07;3.63;;;2.70;;
53931;SDS011;39844;52.496;13.482;2022-12-07T01:39:32;2.57;;;2.37;;
53931;SDS011;39844;52.496;13.482;2022-12-07T01:41:58;2.80;;;2.60;;
53931;SDS011;39844;52.496;13.482;2022-12-07T01:44:26;3.90;;;2.57;;
53931;SDS011;39844;52.496;13.482;2022-12-07T01:46:54;4.07;;;3.00;;
53931;SDS011;39844;52.496;13.482;2022-12-07T01:49:23;2.27;;;2.17;;
53931;SDS011;39844;52.496;13.482;2022-12-07T01:51:55;2.87;;;2.67;;
53931;SDS011;39844;52.496;13.482;2022-12-07T01:54:26;4.43;;;2.90;;
53931;SDS011;39844;52.496;13.482;2022-12-07T01:56:53;2.57;;;2.37;;
53931;SDS011;39844;52.496;13.482;2022-12-07T01:59:22;2.27;;;2.00;;
53931;SDS011;39844;52.496;13.482;2022-12-07T02:01:49;2.10;;;2.00;;
53931;SDS011;39844;52.496;13.482;2022-12-07T02:04:15;3.47;;;2.50;;
53931;SDS011;39844;52.496;13.482;2022-12-07T02:06:40;1.90;;;1.77;;
53931;SDS011;39844;52.496;13.482;2022-12-07T02:09:07;2.40;;;2.20;;
53931;SDS011;39844;52.496;13.482;2022-12-07T02:11:33;2.03;;;1.93;;
53931;SDS011;39844;52.496;13.482;2022-12-07T02:13:58;1.63;;;1.57;;
53931;SDS011;39844;52.496;13.482;2022-12-07T02:35:18;1.60;;;1.50;;
53931;SDS011;39844;52.496;13.482;2022-12-07T02:38:03;2.30;;;2.10;;
53931;SDS011;39844;52.496;13.482;2022-12-07T02:40:50;2.63;;;1.67;;
53931;SDS011;39844;52.496;13.482;2022-12-07T02:43:25;2.43;;;1.97;;
53931;SDS011;39844;52.496;13.482;2022-12-07T02:45:54;1.97;;;1.77;;
53931;SDS011;39844;52.496;13.482;2022-12-07T02:48:23;1.73;;;1.63;;
53931;SDS011;39844;52.496;13.482;2022-12-07T02:50:50;3.00;;;2.47;;
53931;SDS011;39844;52.496;13.482;2022-12-07T02:56:08;2.83;;;1.70;;
53931;SDS011;39844;52.496;13.482;2022-12-07T03:04:09;1.77;;;1.63;;
53931;SDS011;39844;52.496;13.482;2022-12-07T03:06:56;2.30;;;1.90;;
53931;SDS011;39844;52.496;13.482;2022-12-07T03:09:30;1.80;;;1.70;;
53931;SDS011;39844;52.496;13.482;2022-12-07T03:12:04;1.97;;;1.87;;
53931;SDS011;39844;52.496;13.482;2022-12-07T03:14:39;3.23;;;2.23;;
53931;SDS011;39844;52.496;13.482;2022-12-07T03:17:16;2.23;;;2.03;;
53931;SDS011;39844;52.496;13.482;2022-12-07T03:19:46;2.47;;;2.00;;
53931;SDS011;39844;52.496;13.482;2022-12-07T03:22:14;2.33;;;2.10;;
53931;SDS011;39844;52.496;13.482;2022-12-07T03:24:47;2.20;;;2.10;;
53931;SDS011;39844;52.496;13.482;2022-12-07T03:27:23;2.37;;;1.93;;
53931;SDS011;39844;52.496;13.482;2022-12-07T03:29:56;2.80;;;2.53;;
53931;SDS011;39844;52.496;13.482;2022-12-07T03:32:27;2.37;;;2.00;;
53931;SDS011;39844;52.496;13.482;2022-12-07T03:35:03;2.83;;;2.00;;
53931;SDS011;39844;52.496;13.482;2022-12-07T03:37:46;2.20;;;2.00;;
53931;SDS011;39844;52.496;13.482;2022-12-07T03:40:18;2.50;;;1.90;;
53931;SDS011;39844;52.496;13.482;2022-12-07T03:42:50;1.80;;;1.70;;
53931;SDS011;39844;52.496;13.482;2022-12-07T03:45:18;2.27;;;2.17;;
53931;SDS011;39844;52.496;13.482;2022-12-07T03:47:54;3.23;;;2.50;;
53931;SDS011;39844;52.496;13.482;2022-12-07T03:50:45;2.00;;;1.90;;
53931;SDS011;39844;52.496;13.482;2022-12-07T03:53:20;2.53;;;2.33;;
53931;SDS011;39844;52.496;13.482;2022-12-07T03:55:49;2.17;;;2.07;;
53931;SDS011;39844;52.496;13.482;2022-12-07T03:58:17;2.37;;;2.17;;
53931;SDS011;39844;52.496;13.482;2022-12-07T04:00:46;3.57;;;2.80;;
53931;SDS011;39844;52.496;13.482;2022-12-07T04:03:12;3.43;;;2.20;;
53931;SDS011;39844;52.496;13.482;2022-12-07T04:05:37;3.87;;;3.43;;
53931;SDS011;39844;52.496;13.482;2022-12-07T04:08:04;2.57;;;2.30;;
53931;SDS011;39844;52.496;13.482;2022-12-07T04:10:29;4.83;;;2.90;;
53931;SDS011;39844;52.496;13.482;2022-12-07T04:12:54;2.67;;;2.47;;
53931;SDS011;39844;52.496;13.482;2022-12-07T04:15:20;4.20;;;3.10;;
53931;SDS011;39844;52.496;13.482;2022-12-07T04:17:45;3.77;;;2.80;;
53931;SDS011;39844;52.496;13.482;2022-12-07T04:20:11;4.33;;;3.17;;
53931;SDS011;39844;52.496;13.482;2022-12-07T04:22:36;2.50;;;2.30;;
53931;SDS011;39844;52.496;13.482;2022-12-07T04:25:02;4.40;;;2.60;;
53931;SDS011;39844;52.496;13.482;2022-12-07T04:27:27;3.57;;;3.27;;
53931;SDS011;39844;52.496;13.482;2022-12-07T04:29:52;3.10;;;2.53;;
53931;SDS011;39844;52.496;13.482;2022-12-07T04:32:18;3.00;;;2.60;;
53931;SDS011;39844;52.496;13.482;2022-12-07T04:34:43;5.07;;;3.27;;
53931;SDS011;39844;52.496;13.482;2022-12-07T04:37:08;5.63;;;3.50;;
53931;SDS011;39844;52.496;13.482;2022-12-07T04:39:34;3.03;;;2.73;;
53931;SDS011;39844;52.496;13.482;2022-12-07T04:41:59;4.87;;;3.47;;
53931;SDS011;39844;52.496;13.482;2022-12-07T04:44:26;4.37;;;3.70;;
53931;SDS011;39844;52.496;13.482;2022-12-07T04:46:52;4.23;;;3.43;;
53931;SDS011;39844;52.496;13.482;2022-12-07T04:49:18;4.00;;;3.13;;
53931;SDS011;39844;52.496;13.482;2022-12-07T04:51:44;4.20;;;3.23;;
53931;SDS011;39844;52.496;13.482;2022-12-07T04:54:10;4.93;;;3.20;;
53931;SDS011;39844;52.496;13.482;2022-12-07T04:56:36;5.03;;;3.83;;
53931;SDS011;39844;52.496;13.482;2022-12-07T04:59:02;4.77;;;4.00;;
53931;SDS011;39844;52.496;13.482;2022-12-07T05:01:28;5.07;;;3.63;;
53931;SDS011;39844;52.496;13.482;2022-12-07T05:03:53;7.47;;;3.73;;
53931;SDS011;39844;52.496;13.482;2022-12-07T05:06:19;3.90;;;3.17;;
53931;SDS011;39844;52.496;13.482;2022-12-07T05:08:44;4.07;;;2.87;;
53931;SDS011;39844;52.496;13.482;2022-12-07T05:11:10;5.13;;;3.83;;
53931;SDS011;39844;52.496;13.482;2022-12-07T05:13:36;5.50;;;3.97;;
53931;SDS011;39844;52.496;13.482;2022-12-07T05:16:02;6.70;;;4.80;;
53931;SDS011;39844;52.496;13.482;2022-12-07T05:18:27;6.17;;;3.87;;
53931;SDS011;39844;52.496;13.482;2022-12-07T05:20:53;8.53;;;4.60;;
53931;SDS011;39844;52.496;13.482;2022-12-07T05:23:18;6.13;;;3.80;;
53931;SDS011;39844;52.496;13.482;2022-12-07T05:25:44;5.70;;;3.83;;
53931;SDS011;39844;52.496;13.482;2022-12-07T05:28:09;5.33;;;3.80;;
53931;SDS011;39844;52.496;13.482;2022-12-07T05:30:35;7.30;;;4.10;;
53931;SDS011;39844;52.496;13.482;2022-12-07T05:33:00;6.03;;;3.93;;
53931;SDS011;39844;52.496;13.482;2022-12-07T05:35:26;4.90;;;3.43;;
53931;SDS011;39844;52.496;13.482;2022-12-07T05:37:51;5.80;;;3.70;;
53931;SDS011;39844;52.496;13.482;2022-12-07T05:40:16;7.50;;;4.23;;
53931;SDS011;39844;52.496;13.482;2022-12-07T05:42:42;7.27;;;4.60;;
53931;SDS011;39844;52.496;13.482;2022-12-07T05:45:08;5.97;;;4.00;;
53931;SDS011;39844;52.496;13.482;2022-12-07T05:47:35;5.43;;;3.90;;
53931;SDS011;39844;52.496;13.482;2022-12-07T05:50:00;6.07;;;3.97;;
53931;SDS011;39844;52.496;13.482;2022-12-07T05:52:26;5.60;;;4.70;;
53931;SDS011;39844;52.496;13.482;2022-12-07T05:54:51;5.93;;;4.37;;
53931;SDS011;39844;52.496;13.482;2022-12-07T05:57:17;6.40;;;4.70;;
53931;SDS011;39844;52.496;13.482;2022-12-07T05:59:42;5.50;;;4.17;;
53931;SDS011;39844;52.496;13.482;2022-12-07T06:02:09;7.53;;;4.57;;
53931;SDS011;39844;52.496;13.482;2022-12-07T06:04:38;5.83;;;4.47;;
53931;SDS011;39844;52.496;13.482;2022-12-07T06:07:11;5.37;;;4.10;;
53931;SDS011;39844;52.496;13.482;2022-12-07T06:09:38;6.67;;;4.40;;
53931;SDS011;39844;52.496;13.482;2022-12-07T06:12:04;6.93;;;4.87;;
53931;SDS011;39844;52.496;13.482;2022-12-07T06:14:30;6.37;;;4.10;;
53931;SDS011;39844;52.496;13.482;2022-12-07T06:16:55;7.33;;;5.13;;
53931;SDS011;39844;52.496;13.482;2022-12-07T06:19:21;8.03;;;4.00;;
53931;SDS011;39844;52.496;13.482;2022-12-07T06:21:46;5.87;;;4.50;;
53931;SDS011;39844;52.496;13.482;2022-12-07T06:24:12;8.20;;;4.80;;
53931;SDS011;39844;52.496;13.482;2022-12-07T06:26:39;7.97;;;5.27;;
53931;SDS011;39844;52.496;13.482;2022-12-07T06:29:04;7.40;;;4.40;;
53931;SDS011;39844;52.496;13.482;2022-12-07T06:31:30;8.87;;;5.30;;
53931;SDS011;39844;52.496;13.482;2022-12-07T06:33:59;9.47;;;4.80;;
53931;SDS011;39844;52.496;13.482;2022-12-07T06:36:29;6.80;;;4.43;;
53931;SDS011;39844;52.496;13.482;2022-12-07T06:38:55;11.30;;;5.07;;
53931;SDS011;39844;52.496;13.482;2022-12-07T06:41:21;7.20;;;4.60;;
53931;SDS011;39844;52.496;13.482;2022-12-07T06:43:47;5.93;;;4.27;;
53931;SDS011;39844;52.496;13.482;2022-12-07T06:46:13;8.60;;;5.33;;
53931;SDS011;39844;52.496;13.482;2022-12-07T06:48:39;9.63;;;5.53;;
53931;SDS011;39844;52.496;13.482;2022-12-07T06:51:05;7.37;;;4.63;;
53931;SDS011;39844;52.496;13.482;2022-12-07T06:53:31;8.73;;;5.13;;
53931;SDS011;39844;52.496;13.482;2022-12-07T06:55:56;7.63;;;5.20;;
53931;SDS011;39844;52.496;13.482;2022-12-07T06:58:21;11.03;;;5.13;;
53931;SDS011;39844;52.496;13.482;2022-12-07T07:00:47;7.13;;;4.57;;
53931;SDS011;39844;52.496;13.482;2022-12-07T07:03:13;8.97;;;5.37;;
53931;SDS011;39844;52.496;13.482;2022-12-07T07:05:39;6.93;;;4.93;;
53931;SDS011;39844;52.496;13.482;2022-12-07T07:08:04;7.23;;;4.53;;
53931;SDS011;39844;52.496;13.482;2022-12-07T07:10:29;8.70;;;4.47;;
53931;SDS011;39844;52.496;13.482;2022-12-07T07:12:55;9.50;;;4.53;;
53931;SDS011;39844;52.496;13.482;2022-12-07T07:15:20;6.07;;;4.80;;
53931;SDS011;39844;52.496;13.482;2022-12-07T07:17:45;8.50;;;5.00;;
53931;SDS011;39844;52.496;13.482;2022-12-07T07:20:11;6.70;;;4.90;;
53931;SDS011;39844;52.496;13.482;2022-12-07T07:22:36;6.20;;;5.00;;
53931;SDS011;39844;52.496;13.482;2022-12-07T07:25:02;8.67;;;5.67;;
53931;SDS011;39844;52.496;13.482;2022-12-07T07:27:27;7.43;;;5.37;;
53931;SDS011;39844;52.496;13.482;2022-12-07T07:29:52;7.50;;;5.47;;
53931;SDS011;39844;52.496;13.482;2022-12-07T07:32:18;9.50;;;5.67;;
53931;SDS011;39844;52.496;13.482;2022-12-07T07:34:43;8.97;;;5.47;;
53931;SDS011;39844;52.496;13.482;2022-12-07T07:37:08;7.60;;;5.87;;
53931;SDS011;39844;52.496;13.482;2022-12-07T07:39:34;9.57;;;5.50;;
53931;SDS011;39844;52.496;13.482;2022-12-07T07:41:59;5.77;;;4.77;;
53931;SDS011;39844;52.496;13.482;2022-12-07T07:44:24;5.10;;;4.20;;
53931;SDS011;39844;52.496;13.482;2022-12-07T07:46:49;6.10;;;4.17;;
53931;SDS011;39844;52.496;13.482;2022-12-07T07:49:15;6.63;;;4.03;;
53931;SDS011;39844;52.496;13.482;2022-12-07T07:51:40;5.67;;;4.27;;
53931;SDS011;39844;52.496;13.482;2022-12-07T07:54:05;9.33;;;4.77;;
53931;SDS011;39844;52.496;13.482;2022-12-07T07:56:31;5.60;;;4.40;;
53931;SDS011;39844;52.496;13.482;2022-12-07T07:58:56;4.30;;;3.67;;
53931;SDS011;39844;52.496;13.482;2022-12-07T08:01:21;6.10;;;3.90;;
53931;SDS011;39844;52.496;13.482;2022-12-07T08:03:46;5.97;;;4.10;;
53931;SDS011;39844;52.496;13.482;2022-12-07T08:06:12;7.80;;;4.77;;
53931;SDS011;39844;52.496;13.482;2022-12-07T08:08:37;6.67;;;3.47;;
53931;SDS011;39844;52.496;13.482;2022-12-07T08:11:06;8.20;;;3.93;;
53931;SDS011;39844;52.496;13.482;2022-12-07T08:13:32;6.13;;;3.53;;
53931;SDS011;39844;52.496;13.482;2022-12-07T08:15:58;6.40;;;3.80;;
53931;SDS011;39844;52.496;13.482;2022-12-07T08:18:28;7.63;;;3.43;;
53931;SDS011;39844;52.496;13.482;2022-12-07T08:20:58;5.00;;;3.10;;
53931;SDS011;39844;52.496;13.482;2022-12-07T08:23:24;7.17;;;2.93;;
53931;SDS011;39844;52.496;13.482;2022-12-07T08:25:49;4.90;;;3.33;;
53931;SDS011;39844;52.496;13.482;2022-12-07T08:28:15;3.30;;;3.00;;
53931;SDS011;39844;52.496;13.482;2022-12-07T08:30:40;3.13;;;2.87;;
53931;SDS011;39844;52.496;13.482;2022-12-07T08:33:05;5.67;;;3.10;;
53931;SDS011;39844;52.496;13.482;2022-12-07T08:35:32;5.30;;;3.37;;
53931;SDS011;39844;52.496;13.482;2022-12-07T08:37:58;4.10;;;2.80;;
53931;SDS011;39844;52.496;13.482;2022-12-07T08:40:23;4.87;;;3.10;;
53931;SDS011;39844;52.496;13.482;2022-12-07T08:42:49;5.47;;;3.57;;
53931;SDS011;39844;52.496;13.482;2022-12-07T08:45:15;3.85;;;3.00;;
53931;SDS011;39844;52.496;13.482;2022-12-07T08:47:43;4.72;;;3.47;;
53931;SDS011;39844;52.496;13.482;2022-12-07T08:50:13;3.00;;;2.70;;
53931;SDS011;39844;52.496;13.482;2022-12-07T08:52:39;3.77;;;2.37;;
53931;SDS011;39844;52.496;13.482;2022-12-07T08:55:06;4.20;;;2.10;;
53931;SDS011;39844;52.496;13.482;2022-12-07T08:57:32;2.43;;;2.23;;
53931;SDS011;39844;52.496;13.482;2022-12-07T08:59:59;4.20;;;1.90;;
53931;SDS011;39844;52.496;13.482;2022-12-07T09:02:25;2.53;;;1.90;;
53931;SDS011;39844;52.496;13.482;2022-12-07T09:04:50;2.03;;;1.90;;
53931;SDS011;39844;52.496;13.482;2022-12-07T09:07:16;1.80;;;1.70;;
53931;SDS011;39844;52.496;13.482;2022-12-07T09:09:41;2.20;;;1.80;;
53931;SDS011;39844;52.496;13.482;2022-12-07T09:12:07;2.13;;;1.50;;
53931;SDS011;39844;52.496;13.482;2022-12-07T09:14:32;2.10;;;1.90;;
53931;SDS011;39844;52.496;13.482;2022-12-07T09:17:10;1.37;;;1.30;;
53931;SDS011;39844;52.496;13.482;2022-12-07T09:19:37;1.67;;;1.57;;
53931;SDS011;39844;52.496;13.482;2022-12-07T09:22:04;1.20;;;1.07;;
53931;SDS011;39844;52.496;13.482;2022-12-07T09:24:29;2.37;;;1.50;;
53931;SDS011;39844;52.496;13.482;2022-12-07T09:26:56;4.50;;;1.20;;
53931;SDS011;39844;52.496;13.482;2022-12-07T09:29:21;1.23;;;1.20;;
53931;SDS011;39844;52.496;13.482;2022-12-07T09:31:47;1.20;;;1.20;;
53931;SDS011;39844;52.496;13.482;2022-12-07T09:34:12;1.10;;;1.10;;
53931;SDS011;39844;52.496;13.482;2022-12-07T09:36:37;1.37;;;1.37;;
53931;SDS011;39844;52.496;13.482;2022-12-07T09:39:03;1.20;;;1.20;;
53931;SDS011;39844;52.496;13.482;2022-12-07T09:41:29;1.00;;;1.00;;
53931;SDS011;39844;52.496;13.482;2022-12-07T09:43:58;2.83;;;1.60;;
53931;SDS011;39844;52.496;13.482;2022-12-07T09:46:55;0.90;;;0.90;;
53931;SDS011;39844;52.496;13.482;2022-12-07T09:49:22;1.50;;;1.43;;
53931;SDS011;39844;52.496;13.482;2022-12-07T09:51:57;1.53;;;1.33;;
53931;SDS011;39844;52.496;13.482;2022-12-07T09:54:47;1.13;;;1.13;;
53931;SDS011;39844;52.496;13.482;2022-12-07T09:57:14;1.50;;;1.40;;
53931;SDS011;39844;52.496;13.482;2022-12-07T09:59:45;1.13;;;1.13;;
53931;SDS011;39844;52.496;13.482;2022-12-07T10:02:46;1.33;;;1.23;;
53931;SDS011;39844;52.496;13.482;2022-12-07T10:05:19;4.47;;;1.40;;
53931;SDS011;39844;52.496;13.482;2022-12-07T10:08:00;1.03;;;1.03;;
53931;SDS011;39844;52.496;13.482;2022-12-07T10:10:34;0.90;;;0.90;;
53931;SDS011;39844;52.496;13.482;2022-12-07T10:15:43;1.20;;;1.20;;
53931;SDS011;39844;52.496;13.482;2022-12-07T10:18:32;1.10;;;1.10;;
53931;SDS011;39844;52.496;13.482;2022-12-07T10:21:03;1.30;;;1.27;;
53931;SDS011;39844;52.496;13.482;2022-12-07T10:23:29;1.10;;;1.10;;
53931;SDS011;39844;52.496;13.482;2022-12-07T10:25:55;3.30;;;1.37;;
53931;SDS011;39844;52.496;13.482;2022-12-07T10:28:20;0.90;;;0.90;;
53931;SDS011;39844;52.496;13.482;2022-12-07T10:33:56;1.30;;;1.20;;
53931;SDS011;39844;52.496;13.482;2022-12-07T10:38:48;1.40;;;1.10;;
53931;SDS011;39844;52.496;13.482;2022-12-07T10:41:16;1.07;;;1.07;;
53931;SDS011;39844;52.496;13.482;2022-12-07T10:43:51;2.90;;;1.40;;
53931;SDS011;39844;52.496;13.482;2022-12-07T10:46:27;1.63;;;1.53;;
53931;SDS011;39844;52.496;13.482;2022-12-07T10:52:09;2.77;;;1.43;;
53931;SDS011;39844;52.496;13.482;2022-12-07T11:00:39;1.60;;;1.50;;
53931;SDS011;39844;52.496;13.482;2022-12-07T11:09:00;2.40;;;1.63;;
53931;SDS011;39844;52.496;13.482;2022-12-07T11:12:05;4.43;;;1.50;;
53931;SDS011;39844;52.496;13.482;2022-12-07T11:26:50;4.20;;;3.13;;
53931;SDS011;39844;52.496;13.482;2022-12-07T11:29:06;2.03;;;1.90;;
53931;SDS011;39844;52.496;13.482;2022-12-07T11:37:37;1.67;;;1.57;;
53931;SDS011;39844;52.496;13.482;2022-12-07T11:42:35;4.37;;;1.83;;
53931;SDS011;39844;52.496;13.482;2022-12-07T11:45:16;2.10;;;1.97;;
53931;SDS011;39844;52.496;13.482;2022-12-07T11:47:47;2.13;;;1.93;;
53931;SDS011;39844;52.496;13.482;2022-12-07T11:50:21;1.73;;;1.63;;
53931;SDS011;39844;52.496;13.482;2022-12-07T11:53:17;1.60;;;1.50;;
53931;SDS011;39844;52.496;13.482;2022-12-07T12:03:40;2.20;;;2.00;;
53931;SDS011;39844;52.496;13.482;2022-12-07T12:06:15;1.90;;;1.77;;
53931;SDS011;39844;52.496;13.482;2022-12-07T12:08:53;4.30;;;2.00;;
53931;SDS011;39844;52.496;13.482;2022-12-07T12:20:13;1.73;;;1.63;;
53931;SDS011;39844;52.496;13.482;2022-12-07T12:25:44;1.70;;;1.60;;
53931;SDS011;39844;52.496;13.482;2022-12-07T12:31:31;2.17;;;2.00;;
53931;SDS011;39844;52.496;13.482;2022-12-07T12:33:56;3.83;;;1.77;;
53931;SDS011;39844;52.496;13.482;2022-12-07T12:36:24;2.97;;;1.57;;
53931;SDS011;39844;52.496;13.482;2022-12-07T12:51:42;1.70;;;1.23;;
53931;SDS011;39844;52.496;13.482;2022-12-07T13:01:46;1.17;;;1.13;;
53931;SDS011;39844;52.496;13.482;2022-12-07T13:04:22;1.50;;;1.40;;
53931;SDS011;39844;52.496;13.482;2022-12-07T13:06:51;1.40;;;1.30;;
53931;SDS011;39844;52.496;13.482;2022-12-07T13:09:22;1.53;;;1.30;;
53931;SDS011;39844;52.496;13.482;2022-12-07T13:11:55;1.27;;;1.17;;
53931;SDS011;39844;52.496;13.482;2022-12-07T13:14:40;1.17;;;1.10;;
53931;SDS011;39844;52.496;13.482;2022-12-07T13:22:53;0.93;;;0.93;;
53931;SDS011;39844;52.496;13.482;2022-12-07T13:24:57;2.33;;;1.20;;
53931;SDS011;39844;52.496;13.482;2022-12-07T13:27:24;2.73;;;1.70;;
53931;SDS011;39844;52.496;13.482;2022-12-07T13:29:51;1.30;;;1.17;;
53931;SDS011;39844;52.496;13.482;2022-12-07T13:32:24;1.50;;;1.10;;
53931;SDS011;39844;52.496;13.482;2022-12-07T13:34:52;1.43;;;1.33;;
53931;SDS011;39844;52.496;13.482;2022-12-07T13:39:45;1.17;;;1.17;;
53931;SDS011;39844;52.496;13.482;2022-12-07T13:42:45;3.73;;;1.40;;
53931;SDS011;39844;52.496;13.482;2022-12-07T13:47:52;6.97;;;1.43;;
53931;SDS011;39844;52.496;13.482;2022-12-07T13:52:56;1.47;;;1.10;;
53931;SDS011;39844;52.496;13.482;2022-12-07T13:55:22;1.10;;;1.10;;
53931;SDS011;39844;52.496;13.482;2022-12-07T13:57:49;1.30;;;1.20;;
53931;SDS011;39844;52.496;13.482;2022-12-07T14:00:18;1.60;;;1.40;;
53931;SDS011;39844;52.496;13.482;2022-12-07T14:02:58;2.57;;;1.80;;
53931;SDS011;39844;52.496;13.482;2022-12-07T14:05:26;2.90;;;1.23;;
53931;SDS011;39844;52.496;13.482;2022-12-07T14:07:54;1.27;;;1.20;;
53931;SDS011;39844;52.496;13.482;2022-12-07T14:10:34;4.97;;;1.53;;
53931;SDS011;39844;52.496;13.482;2022-12-07T14:13:03;1.93;;;1.23;;
53931;SDS011;39844;52.496;13.482;2022-12-07T14:15:49;1.10;;;1.10;;
53931;SDS011;39844;52.496;13.482;2022-12-07T14:21:06;1.60;;;1.27;;
53931;SDS011;39844;52.496;13.482;2022-12-07T14:23:31;1.40;;;1.13;;
53931;SDS011;39844;52.496;13.482;2022-12-07T14:26:18;1.67;;;1.07;;
53931;SDS011;39844;52.496;13.482;2022-12-07T14:28:45;1.17;;;1.17;;
53931;SDS011;39844;52.496;13.482;2022-12-07T14:31:18;1.60;;;1.20;;
53931;SDS011;39844;52.496;13.482;2022-12-07T14:33:46;3.43;;;1.43;;
53931;SDS011;39844;52.496;13.482;2022-12-07T14:36:11;1.40;;;1.30;;
53931;SDS011;39844;52.496;13.482;2022-12-07T14:38:38;7.73;;;1.87;;
53931;SDS011;39844;52.496;13.482;2022-12-07T14:41:04;1.83;;;1.30;;
53931;SDS011;39844;52.496;13.482;2022-12-07T14:43:36;2.40;;;0.90;;
53931;SDS011;39844;52.496;13.482;2022-12-07T14:46:02;1.73;;;1.63;;
53931;SDS011;39844;52.496;13.482;2022-12-07T14:48:27;0.93;;;0.93;;
53931;SDS011;39844;52.496;13.482;2022-12-07T14:50:52;9.17;;;1.20;;
53931;SDS011;39844;52.496;13.482;2022-12-07T14:53:18;2.60;;;1.97;;
53931;SDS011;39844;52.496;13.482;2022-12-07T14:55:53;3.07;;;1.47;;
53931;SDS011;39844;52.496;13.482;2022-12-07T14:58:18;3.70;;;1.30;;
53931;SDS011;39844;52.496;13.482;2022-12-07T15:00:44;3.53;;;1.30;;
53931;SDS011;39844;52.496;13.482;2022-12-07T15:03:10;1.10;;;1.10;;
53931;SDS011;39844;52.496;13.482;2022-12-07T15:05:35;1.10;;;1.10;;
53931;SDS011;39844;52.496;13.482;2022-12-07T15:08:02;3.53;;;1.50;;
53931;SDS011;39844;52.496;13.482;2022-12-07T15:10:28;3.73;;;1.57;;
53931;SDS011;39844;52.496;13.482;2022-12-07T15:12:56;1.27;;;1.27;;
53931;SDS011;39844;52.496;13.482;2022-12-07T15:15:22;1.43;;;1.00;;
53931;SDS011;39844;52.496;13.482;2022-12-07T15:17:47;2.13;;;1.30;;
53931;SDS011;39844;52.496;13.482;2022-12-07T15:20:13;0.90;;;0.90;;
53931;SDS011;39844;52.496;13.482;2022-12-07T15:22:39;1.33;;;1.23;;
53931;SDS011;39844;52.496;13.482;2022-12-07T15:25:05;1.30;;;1.20;;
53931;SDS011;39844;52.496;13.482;2022-12-07T15:27:30;1.10;;;1.10;;
53931;SDS011;39844;52.496;13.482;2022-12-07T15:29:56;5.67;;;1.40;;
53931;SDS011;39844;52.496;13.482;2022-12-07T15:32:22;3.50;;;1.40;;
53931;SDS011;39844;52.496;13.482;2022-12-07T15:34:47;2.30;;;1.20;;
53931;SDS011;39844;52.496;13.482;2022-12-07T15:37:12;1.20;;;1.10;;
53931;SDS011;39844;52.496;13.482;2022-12-07T15:39:37;2.27;;;1.20;;
53931;SDS011;39844;52.496;13.482;2022-12-07T15:42:03;2.07;;;1.13;;
53931;SDS011;39844;52.496;13.482;2022-12-07T15:44:28;1.10;;;1.10;;
53931;SDS011;39844;52.496;13.482;2022-12-07T15:46:54;2.53;;;1.93;;
53931;SDS011;39844;52.496;13.482;2022-12-07T15:49:19;3.80;;;2.50;;
53931;SDS011;39844;52.496;13.482;2022-12-07T15:51:45;2.00;;;1.90;;
53931;SDS011;39844;52.496;13.482;2022-12-07T15:54:21;4.20;;;3.10;;
53931;SDS011;39844;52.496;13.482;2022-12-07T15:56:48;3.07;;;2.10;;
53931;SDS011;39844;52.496;13.482;2022-12-07T15:59:14;1.70;;;1.60;;
53931;SDS011;39844;52.496;13.482;2022-12-07T16:01:39;3.83;;;1.83;;
53931;SDS011;39844;52.496;13.482;2022-12-07T16:04:05;4.17;;;2.07;;
53931;SDS011;39844;52.496;13.482;2022-12-07T16:06:30;1.97;;;1.60;;
53931;SDS011;39844;52.496;13.482;2022-12-07T16:08:55;5.93;;;1.93;;
53931;SDS011;39844;52.496;13.482;2022-12-07T16:11:21;1.73;;;1.63;;
53931;SDS011;39844;52.496;13.482;2022-12-07T16:13:46;6.80;;;1.50;;
53931;SDS011;39844;52.496;13.482;2022-12-07T16:16:13;4.63;;;1.20;;
53931;SDS011;39844;52.496;13.482;2022-12-07T16:18:39;1.80;;;1.27;;
53931;SDS011;39844;52.496;13.482;2022-12-07T16:21:07;4.00;;;1.80;;
53931;SDS011;39844;52.496;13.482;2022-12-07T16:23:32;3.07;;;2.00;;
53931;SDS011;39844;52.496;13.482;2022-12-07T16:26:05;3.00;;;1.57;;
53931;SDS011;39844;52.496;13.482;2022-12-07T16:28:40;4.30;;;1.50;;
53931;SDS011;39844;52.496;13.482;2022-12-07T16:31:07;1.67;;;1.53;;
53931;SDS011;39844;52.496;13.482;2022-12-07T16:33:36;1.23;;;1.13;;
53931;SDS011;39844;52.496;13.482;2022-12-07T16:36:02;1.10;;;1.10;;
53931;SDS011;39844;52.496;13.482;2022-12-07T16:38:29;1.80;;;1.30;;
53931;SDS011;39844;52.496;13.482;2022-12-07T16:40:54;1.20;;;1.20;;
53931;SDS011;39844;52.496;13.482;2022-12-07T16:43:19;1.93;;;1.83;;
53931;SDS011;39844;52.496;13.482;2022-12-07T16:45:47;5.63;;;1.60;;
53931;SDS011;39844;52.496;13.482;2022-12-07T16:48:14;2.97;;;1.60;;
53931;SDS011;39844;52.496;13.482;2022-12-07T16:50:40;3.43;;;1.97;;
53931;SDS011;39844;52.496;13.482;2022-12-07T16:53:06;2.97;;;1.90;;